Portada
METAR-TAF:

METAR-TAF

Aeroports :

Aeroport de Lanzarote

Lanzarote, Espanya

latitud: 28-57N, longitud: 013-36W, altitud: 14 m

Observació

L'informe es va fer fa 52 minuts, a les 05:00 UTC
Vent 8 kt del Nord/Nord-Est
Temperatura 21°C
Humitat 73%
Pressió 1020 hPa
Visibilitat 10 km o més
Escasses núvols a una alçada de 2500 ft

METAR: GCRR 280500Z 03008KT 9999 FEW025 21/16 Q1020

Hora: 06:52 (05:52 UTC)

Pronòstic

L'informe es va fer fa 3 hores i 52 minuts, a les 02:00 UTC
Pronòstic vàlid del 28 a les 03 UTC al 29 a les 03 UTC
Vent 14 kt del Nord-Est
Visibilitat 10 km o més
Escasses núvols a una alçada de 2500 ft

TAF: GCRR 280200Z 2803/2903 04014KT 9999 FEW025 TX25/2814Z TN20/2806Z

Observacions i pronòstics meteorològics de més de 4000 aeroports (METAR i TAF).

Les estacions disponibles són els punts grocs i vermells al mapa.

Posi el ratolí al punt desitjat per veure el nom de l'estació.

Feu clic per veure les observacions i els pronòstics meteorològics.

Per canviar el mapa: feu clic els botons verds amb una creu de color negre per apropar; al botó verd amb un guió per allunyar la imatge; o en les fletxes verdes per a mapes adjacents.


METAR-TAF: